sensor_id;sensor_type;location;lat;lon;timestamp;pressure;altitude;pressure_sealevel;temperature;humidity
77299;BME280;66361;52.034;20.656;2023-04-03T00:03:04;100375.31;;;0.59;87.96
77299;BME280;66361;52.034;20.656;2023-04-03T00:07:08;100377.25;;;0.47;87.47
77299;BME280;66361;52.034;20.656;2023-04-03T00:11:17;100380.00;;;0.38;88.75
77299;BME280;66361;52.034;20.656;2023-04-03T00:15:22;100378.28;;;0.37;88.46
77299;BME280;66361;52.034;20.656;2023-04-03T00:19:27;100376.41;;;0.47;83.47
77299;BME280;66361;52.034;20.656;2023-04-03T00:23:33;100379.09;;;0.41;85.48
77299;BME280;66361;52.034;20.656;2023-04-03T00:27:38;100385.34;;;0.31;84.90
77299;BME280;66361;52.034;20.656;2023-04-03T00:31:42;100383.75;;;0.22;84.63
77299;BME280;66361;52.034;20.656;2023-04-03T00:35:45;100375.28;;;0.13;84.93
77299;BME280;66361;52.034;20.656;2023-04-03T00:39:52;100378.88;;;0.04;85.15
77299;BME280;66361;52.034;20.656;2023-04-03T00:43:55;100379.13;;;-0.11;86.22
77299;BME280;66361;52.034;20.656;2023-04-03T00:48:03;100398.41;;;-0.29;88.02
77299;BME280;66361;52.034;20.656;2023-04-03T00:52:08;100402.03;;;-0.40;88.35
77299;BME280;66361;52.034;20.656;2023-04-03T00:56:18;100395.19;;;-0.43;87.45
77299;BME280;66361;52.034;20.656;2023-04-03T01:00:24;100406.28;;;-0.35;87.84
77299;BME280;66361;52.034;20.656;2023-04-03T01:04:31;100405.22;;;-0.22;85.65
77299;BME280;66361;52.034;20.656;2023-04-03T01:08:36;100417.41;;;-0.27;86.03
77299;BME280;66361;52.034;20.656;2023-04-03T01:12:43;100419.09;;;-0.24;83.65
77299;BME280;66361;52.034;20.656;2023-04-03T01:16:52;100414.97;;;-0.37;84.83
77299;BME280;66361;52.034;20.656;2023-04-03T01:25:34;100432.56;;;-0.61;84.28
77299;BME280;66361;52.034;20.656;2023-04-03T01:29:40;100433.50;;;-0.66;84.88
77299;BME280;66361;52.034;20.656;2023-04-03T01:33:46;100433.72;;;-0.81;85.25
77299;BME280;66361;52.034;20.656;2023-04-03T01:37:49;100438.13;;;-0.88;85.69
77299;BME280;66361;52.034;20.656;2023-04-03T01:41:51;100441.66;;;-0.98;84.65
77299;BME280;66361;52.034;20.656;2023-04-03T01:45:54;100442.69;;;-1.11;86.30
77299;BME280;66361;52.034;20.656;2023-04-03T01:49:59;100445.31;;;-1.16;87.33
77299;BME280;66361;52.034;20.656;2023-04-03T01:54:02;100444.41;;;-1.12;86.77
77299;BME280;66361;52.034;20.656;2023-04-03T01:58:05;100443.56;;;-1.11;86.38
77299;BME280;66361;52.034;20.656;2023-04-03T02:02:07;100452.22;;;-1.16;86.18
77299;BME280;66361;52.034;20.656;2023-04-03T02:06:12;100452.34;;;-1.27;86.18
77299;BME280;66361;52.034;20.656;2023-04-03T02:10:18;100457.53;;;-1.25;85.50
77299;BME280;66361;52.034;20.656;2023-04-03T02:14:22;100455.84;;;-1.29;85.78
77299;BME280;66361;52.034;20.656;2023-04-03T02:18:25;100458.47;;;-1.35;84.91
77299;BME280;66361;52.034;20.656;2023-04-03T02:22:29;100461.88;;;-1.30;84.20
77299;BME280;66361;52.034;20.656;2023-04-03T02:26:32;100459.41;;;-1.41;85.50
77299;BME280;66361;52.034;20.656;2023-04-03T02:30:36;100462.88;;;-1.45;84.62
77299;BME280;66361;52.034;20.656;2023-04-03T02:34:39;100466.41;;;-1.54;85.78
77299;BME280;66361;52.034;20.656;2023-04-03T02:38:43;100470.72;;;-1.54;85.57
77299;BME280;66361;52.034;20.656;2023-04-03T02:42:47;100473.31;;;-1.54;85.07
77299;BME280;66361;52.034;20.656;2023-04-03T02:46:50;100477.72;;;-1.64;85.21
77299;BME280;66361;52.034;20.656;2023-04-03T02:50:53;100471.69;;;-1.64;85.48
77299;BME280;66361;52.034;20.656;2023-04-03T02:54:58;100486.41;;;-1.71;85.23
77299;BME280;66361;52.034;20.656;2023-04-03T02:59:04;100479.56;;;-1.81;85.35
77299;BME280;66361;52.034;20.656;2023-04-03T03:03:10;100478.78;;;-1.90;86.69
77299;BME280;66361;52.034;20.656;2023-04-03T03:07:15;100487.44;;;-1.96;86.79
77299;BME280;66361;52.034;20.656;2023-04-03T03:11:19;100490.06;;;-1.99;86.45
77299;BME280;66361;52.034;20.656;2023-04-03T03:15:22;100490.88;;;-1.91;87.27
77299;BME280;66361;52.034;20.656;2023-04-03T03:19:28;100484.88;;;-1.98;87.56
77299;BME280;66361;52.034;20.656;2023-04-03T03:23:34;100491.72;;;-1.92;85.96
77299;BME280;66361;52.034;20.656;2023-04-03T03:27:40;100489.16;;;-1.89;86.17
77299;BME280;66361;52.034;20.656;2023-04-03T03:31:46;100498.69;;;-1.97;85.59
77299;BME280;66361;52.034;20.656;2023-04-03T03:35:49;100496.13;;;-2.06;86.45
77299;BME280;66361;52.034;20.656;2023-04-03T03:39:52;100500.47;;;-2.08;86.90
77299;BME280;66361;52.034;20.656;2023-04-03T03:43:56;100490.19;;;-2.17;86.11
77299;BME280;66361;52.034;20.656;2023-04-03T03:47:59;100502.22;;;-2.15;86.54
77299;BME280;66361;52.034;20.656;2023-04-03T03:52:02;100504.81;;;-2.13;85.94
77299;BME280;66361;52.034;20.656;2023-04-03T03:56:06;100509.94;;;-2.07;86.59
77299;BME280;66361;52.034;20.656;2023-04-03T04:00:12;100518.63;;;-2.20;87.45
77299;BME280;66361;52.034;20.656;2023-04-03T04:04:15;100520.38;;;-2.24;87.44
77299;BME280;66361;52.034;20.656;2023-04-03T04:08:20;100519.50;;;-2.21;86.16
77299;BME280;66361;52.034;20.656;2023-04-03T04:12:23;100528.97;;;-2.20;86.76
77299;BME280;66361;52.034;20.656;2023-04-03T04:16:30;100517.81;;;-2.28;86.34
77299;BME280;66361;52.034;20.656;2023-04-03T04:20:33;100518.69;;;-2.32;87.85
77299;BME280;66361;52.034;20.656;2023-04-03T04:24:37;100518.69;;;-2.28;86.16
77299;BME280;66361;52.034;20.656;2023-04-03T04:28:40;100521.25;;;-2.23;87.15
77299;BME280;66361;52.034;20.656;2023-04-03T04:32:45;100520.41;;;-2.27;87.03
77299;BME280;66361;52.034;20.656;2023-04-03T04:36:50;100535.00;;;-2.21;86.40
77299;BME280;66361;52.034;20.656;2023-04-03T04:40:56;100530.69;;;-2.22;87.33
77299;BME280;66361;52.034;20.656;2023-04-03T04:44:59;100539.34;;;-2.23;85.93
77299;BME280;66361;52.034;20.656;2023-04-03T04:49:03;100547.03;;;-2.13;85.92
77299;BME280;66361;52.034;20.656;2023-04-03T04:53:07;100546.03;;;-1.89;85.03
77299;BME280;66361;52.034;20.656;2023-04-03T04:57:12;100566.66;;;-1.74;84.87
77299;BME280;66361;52.034;20.656;2023-04-03T05:01:15;100563.91;;;-1.53;83.46
77299;BME280;66361;52.034;20.656;2023-04-03T05:05:20;100559.34;;;-1.25;80.41
77299;BME280;66361;52.034;20.656;2023-04-03T05:09:23;100558.91;;;-0.76;79.84
77299;BME280;66361;52.034;20.656;2023-04-03T05:13:27;100566.13;;;-0.31;79.57
77299;BME280;66361;52.034;20.656;2023-04-03T05:17:32;100563.41;;;0.94;72.19
77299;BME280;66361;52.034;20.656;2023-04-03T05:21:40;100566.66;;;3.99;61.36
77299;BME280;66361;52.034;20.656;2023-04-03T05:25:47;100566.16;;;5.72;53.18
77299;BME280;66361;52.034;20.656;2023-04-03T05:29:52;100580.50;;;6.53;50.05
77299;BME280;66361;52.034;20.656;2023-04-03T05:33:55;100579.16;;;5.50;51.77
77299;BME280;66361;52.034;20.656;2023-04-03T05:38:00;100594.97;;;6.18;51.01
77299;BME280;66361;52.034;20.656;2023-04-03T05:42:03;100592.41;;;8.80;45.22
77299;BME280;66361;52.034;20.656;2023-04-03T05:46:09;100602.56;;;11.31;38.13
77299;BME280;66361;52.034;20.656;2023-04-03T05:50:14;100597.13;;;12.21;34.35
77299;BME280;66361;52.034;20.656;2023-04-03T05:54:21;100609.75;;;11.13;36.37
77299;BME280;66361;52.034;20.656;2023-04-03T05:58:26;100600.81;;;9.56;39.22
77299;BME280;66361;52.034;20.656;2023-04-03T06:02:29;100602.25;;;8.93;39.00
77299;BME280;66361;52.034;20.656;2023-04-03T06:06:46;100606.88;;;11.18;36.10
77299;BME280;66361;52.034;20.656;2023-04-03T06:10:53;100615.44;;;12.09;33.36
77299;BME280;66361;52.034;20.656;2023-04-03T06:14:55;100614.22;;;12.15;32.80
77299;BME280;66361;52.034;20.656;2023-04-03T06:18:59;100619.69;;;12.81;32.37
77299;BME280;66361;52.034;20.656;2023-04-03T06:23:02;100619.63;;;11.55;33.55
77299;BME280;66361;52.034;20.656;2023-04-03T06:27:11;100622.03;;;11.88;34.11
77299;BME280;66361;52.034;20.656;2023-04-03T06:31:14;100629.97;;;11.14;35.68
77299;BME280;66361;52.034;20.656;2023-04-03T06:35:18;100626.31;;;11.61;34.70
77299;BME280;66361;52.034;20.656;2023-04-03T06:39:22;100635.94;;;12.34;32.00
77299;BME280;66361;52.034;20.656;2023-04-03T06:43:27;100640.38;;;11.47;34.86
77299;BME280;66361;52.034;20.656;2023-04-03T06:47:35;100648.50;;;12.45;34.61
77299;BME280;66361;52.034;20.656;2023-04-03T06:51:38;100650.34;;;12.85;32.33
77299;BME280;66361;52.034;20.656;2023-04-03T06:55:42;100650.09;;;13.69;32.05
77299;BME280;66361;52.034;20.656;2023-04-03T06:59:49;100657.91;;;13.97;31.48
77299;BME280;66361;52.034;20.656;2023-04-03T07:03:52;100656.66;;;14.77;29.11
77299;BME280;66361;52.034;20.656;2023-04-03T07:07:56;100656.16;;;14.95;28.25
77299;BME280;66361;52.034;20.656;2023-04-03T07:12:02;100671.84;;;16.51;28.68
77299;BME280;66361;52.034;20.656;2023-04-03T07:16:11;100668.00;;;16.09;26.87
77299;BME280;66361;52.034;20.656;2023-04-03T07:20:18;100678.47;;;16.56;25.61
77299;BME280;66361;52.034;20.656;2023-04-03T07:24:21;100684.19;;;15.94;26.59
77299;BME280;66361;52.034;20.656;2023-04-03T07:28:24;100681.31;;;14.79;28.21
77299;BME280;66361;52.034;20.656;2023-04-03T07:32:30;100687.72;;;15.00;28.72
77299;BME280;66361;52.034;20.656;2023-04-03T07:36:32;100689.72;;;15.45;29.13
77299;BME280;66361;52.034;20.656;2023-04-03T07:40:36;100691.75;;;15.66;28.50
77299;BME280;66361;52.034;20.656;2023-04-03T07:44:39;100701.59;;;14.80;29.86
77299;BME280;66361;52.034;20.656;2023-04-03T07:48:44;100692.53;;;15.31;28.65
77299;BME280;66361;52.034;20.656;2023-04-03T07:52:48;100688.47;;;15.38;29.13
77299;BME280;66361;52.034;20.656;2023-04-03T07:56:52;100686.16;;;14.97;27.24
77299;BME280;66361;52.034;20.656;2023-04-03T08:00:55;100698.28;;;15.01;28.06
77299;BME280;66361;52.034;20.656;2023-04-03T08:05:00;100685.50;;;14.57;27.93
77299;BME280;66361;52.034;20.656;2023-04-03T08:09:03;100683.91;;;13.52;29.74
77299;BME280;66361;52.034;20.656;2023-04-03T08:13:07;100683.97;;;15.63;28.27
77299;BME280;66361;52.034;20.656;2023-04-03T08:17:12;100690.84;;;13.28;29.55
77299;BME280;66361;52.034;20.656;2023-04-03T08:21:17;100692.38;;;12.49;31.58
77299;BME280;66361;52.034;20.656;2023-04-03T08:25:20;100692.97;;;11.52;31.05
77299;BME280;66361;52.034;20.656;2023-04-03T08:29:24;100692.19;;;11.50;32.68
77299;BME280;66361;52.034;20.656;2023-04-03T08:33:27;100705.63;;;12.35;33.34
77299;BME280;66361;52.034;20.656;2023-04-03T08:37:34;100698.28;;;13.75;29.70
77299;BME280;66361;52.034;20.656;2023-04-03T08:41:39;100710.50;;;12.97;29.66
77299;BME280;66361;52.034;20.656;2023-04-03T08:45:46;100712.50;;;12.09;30.88
77299;BME280;66361;52.034;20.656;2023-04-03T08:49:54;100715.28;;;14.12;30.36
77299;BME280;66361;52.034;20.656;2023-04-03T08:54:03;100705.59;;;14.49;30.39
77299;BME280;66361;52.034;20.656;2023-04-03T08:58:12;100698.69;;;14.34;29.25
77299;BME280;66361;52.034;20.656;2023-04-03T09:02:21;100714.75;;;13.00;29.06
77299;BME280;66361;52.034;20.656;2023-04-03T09:06:31;100704.63;;;12.07;29.62
77299;BME280;66361;52.034;20.656;2023-04-03T09:10:38;100717.94;;;13.46;29.25
77299;BME280;66361;52.034;20.656;2023-04-03T09:14:49;100703.78;;;10.20;31.11
77299;BME280;66361;52.034;20.656;2023-04-03T09:19:04;100713.34;;;9.89;35.78
77299;BME280;66361;52.034;20.656;2023-04-03T09:23:20;100709.72;;;11.21;32.16
77299;BME280;66361;52.034;20.656;2023-04-03T09:27:28;100697.31;;;11.83;31.36
77299;BME280;66361;52.034;20.656;2023-04-03T09:31:36;100704.78;;;11.15;32.92
77299;BME280;66361;52.034;20.656;2023-04-03T09:35:50;100715.84;;;9.92;31.45
77299;BME280;66361;52.034;20.656;2023-04-03T09:39:54;100713.25;;;10.07;32.24
77299;BME280;66361;52.034;20.656;2023-04-03T09:43:58;100712.84;;;10.32;30.63
77299;BME280;66361;52.034;20.656;2023-04-03T09:48:07;100702.63;;;11.37;31.41
77299;BME280;66361;52.034;20.656;2023-04-03T09:52:23;100718.84;;;12.63;32.07
77299;BME280;66361;52.034;20.656;2023-04-03T09:56:27;100723.34;;;11.13;29.97
77299;BME280;66361;52.034;20.656;2023-04-03T10:00:35;100720.97;;;9.95;32.91
77299;BME280;66361;52.034;20.656;2023-04-03T10:04:40;100715.53;;;12.17;32.81
77299;BME280;66361;52.034;20.656;2023-04-03T10:08:59;100729.63;;;13.02;30.56
77299;BME280;66361;52.034;20.656;2023-04-03T10:13:07;100719.09;;;10.47;32.69
77299;BME280;66361;52.034;20.656;2023-04-03T10:17:28;100724.72;;;9.19;33.59
77299;BME280;66361;52.034;20.656;2023-04-03T10:21:41;100721.91;;;7.90;38.06
77299;BME280;66361;52.034;20.656;2023-04-03T10:25:57;100712.25;;;8.29;37.79
77299;BME280;66361;52.034;20.656;2023-04-03T10:30:20;100711.50;;;7.87;38.31
77299;BME280;66361;52.034;20.656;2023-04-03T10:34:30;100712.56;;;8.03;37.80
77299;BME280;66361;52.034;20.656;2023-04-03T10:38:43;100713.47;;;8.22;38.61
77299;BME280;66361;52.034;20.656;2023-04-03T10:42:52;100713.13;;;7.69;37.78
77299;BME280;66361;52.034;20.656;2023-04-03T10:47:06;100702.69;;;8.65;37.76
77299;BME280;66361;52.034;20.656;2023-04-03T10:51:22;100704.09;;;8.54;37.90
77299;BME280;66361;52.034;20.656;2023-04-03T10:55:33;100692.06;;;9.23;38.39
77299;BME280;66361;52.034;20.656;2023-04-03T10:59:41;100690.28;;;9.23;37.27
77299;BME280;66361;52.034;20.656;2023-04-03T11:03:52;100690.16;;;8.33;37.21
77299;BME280;66361;52.034;20.656;2023-04-03T11:08:04;100704.75;;;7.39;38.65
77299;BME280;66361;52.034;20.656;2023-04-03T11:12:15;100687.19;;;8.41;38.03
77299;BME280;66361;52.034;20.656;2023-04-03T11:16:24;100687.97;;;8.80;39.20
77299;BME280;66361;52.034;20.656;2023-04-03T11:20:36;100693.59;;;8.54;36.56
77299;BME280;66361;52.034;20.656;2023-04-03T11:24:46;100693.25;;;8.04;39.64
77299;BME280;66361;52.034;20.656;2023-04-03T11:28:57;100695.22;;;8.38;36.30
77299;BME280;66361;52.034;20.656;2023-04-03T11:33:11;100680.56;;;7.93;38.11
77299;BME280;66361;52.034;20.656;2023-04-03T11:37:26;100689.53;;;7.47;37.31
77299;BME280;66361;52.034;20.656;2023-04-03T11:41:33;100680.84;;;7.67;38.83
77299;BME280;66361;52.034;20.656;2023-04-03T11:45:40;100675.00;;;7.39;39.97
77299;BME280;66361;52.034;20.656;2023-04-03T11:49:58;100685.53;;;6.50;39.64
77299;BME280;66361;52.034;20.656;2023-04-03T11:59:24;100688.03;;;8.22;38.02
77299;BME280;66361;52.034;20.656;2023-04-03T12:08:21;100678.59;;;8.56;35.54
77299;BME280;66361;52.034;20.656;2023-04-03T12:12:31;100676.25;;;8.50;34.31
77299;BME280;66361;52.034;20.656;2023-04-03T12:16:45;100681.63;;;8.84;38.78
77299;BME280;66361;52.034;20.656;2023-04-03T12:20:54;100678.75;;;8.14;34.96
77299;BME280;66361;52.034;20.656;2023-04-03T12:24:57;100674.53;;;7.71;36.07
77299;BME280;66361;52.034;20.656;2023-04-03T12:29:13;100661.44;;;7.90;34.09
77299;BME280;66361;52.034;20.656;2023-04-03T12:33:32;100667.63;;;8.46;35.97
77299;BME280;66361;52.034;20.656;2023-04-03T12:37:54;100658.53;;;8.35;31.55
77299;BME280;66361;52.034;20.656;2023-04-03T12:42:18;100666.97;;;7.63;38.57
77299;BME280;66361;52.034;20.656;2023-04-03T12:46:28;100658.72;;;7.30;35.40
77299;BME280;66361;52.034;20.656;2023-04-03T12:50:41;100668.19;;;7.13;37.79
77299;BME280;66361;52.034;20.656;2023-04-03T12:54:47;100658.16;;;7.44;35.41
77299;BME280;66361;52.034;20.656;2023-04-03T12:58:53;100660.16;;;7.59;35.42
77299;BME280;66361;52.034;20.656;2023-04-03T13:02:57;100677.81;;;7.34;37.24
77299;BME280;66361;52.034;20.656;2023-04-03T13:07:01;100677.03;;;6.89;36.20
77299;BME280;66361;52.034;20.656;2023-04-03T13:11:08;100669.97;;;7.12;36.82
77299;BME280;66361;52.034;20.656;2023-04-03T13:15:18;100655.13;;;7.33;35.29
77299;BME280;66361;52.034;20.656;2023-04-03T13:19:25;100651.69;;;7.11;35.03
77299;BME280;66361;52.034;20.656;2023-04-03T13:23:33;100654.63;;;7.23;36.77
77299;BME280;66361;52.034;20.656;2023-04-03T13:27:38;100661.25;;;7.34;36.56
77299;BME280;66361;52.034;20.656;2023-04-03T13:31:43;100656.41;;;7.23;35.63
77299;BME280;66361;52.034;20.656;2023-04-03T13:35:47;100656.00;;;7.54;35.44
77299;BME280;66361;52.034;20.656;2023-04-03T13:40:01;100650.34;;;7.43;37.13
77299;BME280;66361;52.034;20.656;2023-04-03T13:44:25;100654.59;;;7.25;34.73
77299;BME280;66361;52.034;20.656;2023-04-03T13:48:35;100652.19;;;7.41;36.48
77299;BME280;66361;52.034;20.656;2023-04-03T13:52:44;100647.88;;;7.18;35.86
77299;BME280;66361;52.034;20.656;2023-04-03T13:56:54;100653.03;;;6.99;37.34
77299;BME280;66361;52.034;20.656;2023-04-03T14:01:01;100650.19;;;7.04;35.33
77299;BME280;66361;52.034;20.656;2023-04-03T14:05:04;100666.63;;;6.87;38.69
77299;BME280;66361;52.034;20.656;2023-04-03T14:09:12;100654.41;;;6.63;35.80
77299;BME280;66361;52.034;20.656;2023-04-03T14:13:19;100657.75;;;6.45;37.09
77299;BME280;66361;52.034;20.656;2023-04-03T14:17:24;100660.16;;;6.51;38.42
77299;BME280;66361;52.034;20.656;2023-04-03T14:21:28;100661.63;;;6.34;39.07
77299;BME280;66361;52.034;20.656;2023-04-03T14:25:31;100669.09;;;6.22;39.93
77299;BME280;66361;52.034;20.656;2023-04-03T14:29:36;100658.03;;;6.14;40.51
77299;BME280;66361;52.034;20.656;2023-04-03T14:33:40;100659.06;;;6.10;40.27
77299;BME280;66361;52.034;20.656;2023-04-03T14:37:46;100655.59;;;5.84;39.88
77299;BME280;66361;52.034;20.656;2023-04-03T14:41:49;100650.53;;;5.80;39.46
77299;BME280;66361;52.034;20.656;2023-04-03T14:45:53;100650.03;;;5.69;39.63
77299;BME280;66361;52.034;20.656;2023-04-03T14:49:57;100662.94;;;5.75;41.39
77299;BME280;66361;52.034;20.656;2023-04-03T14:54:03;100656.09;;;5.71;40.76
77299;BME280;66361;52.034;20.656;2023-04-03T14:58:11;100653.25;;;5.52;40.50
77299;BME280;66361;52.034;20.656;2023-04-03T15:02:26;100659.97;;;5.34;41.36
77299;BME280;66361;52.034;20.656;2023-04-03T15:06:32;100666.16;;;5.32;41.81
77299;BME280;66361;52.034;20.656;2023-04-03T15:10:40;100654.78;;;5.33;42.93
77299;BME280;66361;52.034;20.656;2023-04-03T15:14:43;100661.00;;;5.30;42.02
77299;BME280;66361;52.034;20.656;2023-04-03T15:18:55;100657.56;;;5.28;42.64
77299;BME280;66361;52.034;20.656;2023-04-03T15:22:59;100657.63;;;5.27;41.95
77299;BME280;66361;52.034;20.656;2023-04-03T15:27:03;100661.16;;;5.24;44.03
77299;BME280;66361;52.034;20.656;2023-04-03T15:31:08;100651.06;;;5.14;43.64
77299;BME280;66361;52.034;20.656;2023-04-03T15:35:16;100663.19;;;5.16;43.99
77299;BME280;66361;52.034;20.656;2023-04-03T15:39:19;100648.56;;;5.11;44.19
77299;BME280;66361;52.034;20.656;2023-04-03T15:43:22;100668.97;;;5.00;42.65
77299;BME280;66361;52.034;20.656;2023-04-03T15:47:26;100661.31;;;4.94;43.35
77299;BME280;66361;52.034;20.656;2023-04-03T15:51:31;100669.66;;;4.78;43.21
77299;BME280;66361;52.034;20.656;2023-04-03T15:55:38;100665.56;;;4.70;45.58
77299;BME280;66361;52.034;20.656;2023-04-03T15:59:41;100657.19;;;4.59;46.58
77299;BME280;66361;52.034;20.656;2023-04-03T16:03:44;100660.19;;;4.45;46.44
77299;BME280;66361;52.034;20.656;2023-04-03T16:07:50;100662.22;;;4.35;46.45
77299;BME280;66361;52.034;20.656;2023-04-03T16:11:53;100653.81;;;4.26;44.40
77299;BME280;66361;52.034;20.656;2023-04-03T16:15:56;100659.09;;;4.23;45.77
77299;BME280;66361;52.034;20.656;2023-04-03T16:19:59;100658.41;;;4.18;45.90
77299;BME280;66361;52.034;20.656;2023-04-03T16:24:07;100653.28;;;4.15;46.25
77299;BME280;66361;52.034;20.656;2023-04-03T16:28:11;100656.00;;;4.10;44.88
77299;BME280;66361;52.034;20.656;2023-04-03T16:32:15;100656.13;;;4.06;46.25
77299;BME280;66361;52.034;20.656;2023-04-03T16:36:18;100666.69;;;4.01;47.11
77299;BME280;66361;52.034;20.656;2023-04-03T16:40:23;100655.59;;;3.93;48.62
77299;BME280;66361;52.034;20.656;2023-04-03T16:44:26;100664.50;;;3.87;48.53
77299;BME280;66361;52.034;20.656;2023-04-03T16:48:31;100665.66;;;3.77;48.22
77299;BME280;66361;52.034;20.656;2023-04-03T16:52:35;100658.00;;;3.70;48.73
77299;BME280;66361;52.034;20.656;2023-04-03T16:56:40;100665.13;;;3.63;48.77
77299;BME280;66361;52.034;20.656;2023-04-03T17:00:45;100677.50;;;3.55;48.70
77299;BME280;66361;52.034;20.656;2023-04-03T17:04:52;100682.00;;;3.50;48.87
77299;BME280;66361;52.034;20.656;2023-04-03T17:08:55;100665.59;;;3.47;47.39
77299;BME280;66361;52.034;20.656;2023-04-03T17:13:00;100677.78;;;3.44;46.03
77299;BME280;66361;52.034;20.656;2023-04-03T17:17:03;100679.88;;;3.32;48.18
77299;BME280;66361;52.034;20.656;2023-04-03T17:21:10;100684.50;;;3.21;47.19
77299;BME280;66361;52.034;20.656;2023-04-03T17:25:16;100687.34;;;3.10;48.55
77299;BME280;66361;52.034;20.656;2023-04-03T20:38:52;100739.84;;;1.65;61.71
77299;BME280;66361;52.034;20.656;2023-04-03T20:42:55;100736.44;;;1.63;61.47
77299;BME280;66361;52.034;20.656;2023-04-03T20:46:59;100739.94;;;1.60;62.41
77299;BME280;66361;52.034;20.656;2023-04-03T20:51:07;100739.09;;;1.60;61.02
77299;BME280;66361;52.034;20.656;2023-04-03T20:55:13;100746.00;;;1.61;61.34
77299;BME280;66361;52.034;20.656;2023-04-03T20:59:16;100746.00;;;1.61;60.42
77299;BME280;66361;52.034;20.656;2023-04-03T21:03:21;100745.06;;;1.65;59.30
77299;BME280;66361;52.034;20.656;2023-04-03T21:20:33;100739.44;;;1.38;60.67
77299;BME280;66361;52.034;20.656;2023-04-03T21:24:37;100734.22;;;1.38;61.18
77299;BME280;66361;52.034;20.656;2023-04-03T21:28:40;100747.34;;;1.31;61.69
77299;BME280;66361;52.034;20.656;2023-04-03T21:32:44;100746.53;;;1.27;61.50
77299;BME280;66361;52.034;20.656;2023-04-03T21:36:48;100741.50;;;1.18;62.85
77299;BME280;66361;52.034;20.656;2023-04-03T21:40:55;100743.41;;;1.07;63.53
77299;BME280;66361;52.034;20.656;2023-04-03T21:44:58;100740.06;;;0.97;63.16
77299;BME280;66361;52.034;20.656;2023-04-03T21:49:01;100750.56;;;0.90;63.44
77299;BME280;66361;52.034;20.656;2023-04-03T21:53:08;100740.22;;;0.85;64.67
77299;BME280;66361;52.034;20.656;2023-04-03T21:57:12;100750.72;;;0.81;63.92
77299;BME280;66361;52.034;20.656;2023-04-03T22:01:16;100749.03;;;0.77;65.54
77299;BME280;66361;52.034;20.656;2023-04-03T22:05:19;100754.28;;;0.72;66.33
77299;BME280;66361;52.034;20.656;2023-04-03T22:09:27;100746.53;;;0.68;65.67
77299;BME280;66361;52.034;20.656;2023-04-03T22:13:30;100741.44;;;0.60;66.08
77299;BME280;66361;52.034;20.656;2023-04-03T22:17:33;100740.63;;;0.57;65.86
77299;BME280;66361;52.034;20.656;2023-04-03T22:21:37;100738.94;;;0.52;66.92
77299;BME280;66361;52.034;20.656;2023-04-03T22:25:41;100737.22;;;0.51;67.38
77299;BME280;66361;52.034;20.656;2023-04-03T22:29:44;100739.00;;;0.49;67.57
77299;BME280;66361;52.034;20.656;2023-04-03T22:33:47;100737.31;;;0.47;67.80
77299;BME280;66361;52.034;20.656;2023-04-03T22:37:53;100739.91;;;0.45;69.10
77299;BME280;66361;52.034;20.656;2023-04-03T22:42:00;100741.69;;;0.42;68.88
77299;BME280;66361;52.034;20.656;2023-04-03T22:46:09;100733.16;;;0.32;69.59
77299;BME280;66361;52.034;20.656;2023-04-03T22:50:17;100733.16;;;0.31;69.29
77299;BME280;66361;52.034;20.656;2023-04-03T22:54:22;100729.75;;;0.29;70.37
77299;BME280;66361;52.034;20.656;2023-04-03T22:58:28;100731.47;;;0.28;70.32
77299;BME280;66361;52.034;20.656;2023-04-03T23:02:33;100722.91;;;0.20;69.74
77299;BME280;66361;52.034;20.656;2023-04-03T23:06:36;100728.97;;;0.19;70.15
77299;BME280;66361;52.034;20.656;2023-04-03T23:10:40;100717.78;;;0.14;71.03
77299;BME280;66361;52.034;20.656;2023-04-03T23:14:45;100725.66;;;0.10;71.36
77299;BME280;66361;52.034;20.656;2023-04-03T23:18:50;100717.03;;;0.06;71.95
77299;BME280;66361;52.034;20.656;2023-04-03T23:22:53;100723.13;;;-0.01;72.19
77299;BME280;66361;52.034;20.656;2023-04-03T23:26:56;100724.94;;;-0.06;72.62
77299;BME280;66361;52.034;20.656;2023-04-03T23:31:02;100724.16;;;-0.13;72.41
77299;BME280;66361;52.034;20.656;2023-04-03T23:35:08;100720.72;;;-0.15;72.20
77299;BME280;66361;52.034;20.656;2023-04-03T23:39:11;100710.31;;;-0.15;72.20
77299;BME280;66361;52.034;20.656;2023-04-03T23:43:17;100710.34;;;-0.16;72.46
77299;BME280;66361;52.034;20.656;2023-04-03T23:47:22;100709.50;;;-0.20;71.96
77299;BME280;66361;52.034;20.656;2023-04-03T23:51:25;100708.72;;;-0.25;72.56
77299;BME280;66361;52.034;20.656;2023-04-03T23:55:28;100713.94;;;-0.29;72.96
77299;BME280;66361;52.034;20.656;2023-04-03T23:59:32;100698.47;;;-0.35;73.06
